createdAt,value
2019-05-23T00:02:37.318Z,15.40
2019-05-23T00:05:15.920Z,15.40
2019-05-23T00:07:45.243Z,15.40
2019-05-23T00:10:20.747Z,15.40
2019-05-23T00:13:01.725Z,15.30
2019-05-23T00:15:35.573Z,15.30
2019-05-23T00:18:05.970Z,15.20
2019-05-23T00:20:35.604Z,15.20
2019-05-23T00:23:05.352Z,15.20
2019-05-23T00:25:44.727Z,15.10
2019-05-23T00:28:15.142Z,15.10
2019-05-23T00:30:55.822Z,15.10
2019-05-23T00:33:28.005Z,15.00
2019-05-23T00:35:59.258Z,15.00
2019-05-23T00:38:30.064Z,14.90
2019-05-23T00:40:59.694Z,14.90
2019-05-23T00:43:29.431Z,14.80
2019-05-23T00:45:59.942Z,14.80
2019-05-23T00:48:30.254Z,14.70
2019-05-23T00:51:06.725Z,14.70
2019-05-23T00:53:37.659Z,14.60
2019-05-23T00:56:09.022Z,14.60
2019-05-23T00:58:38.477Z,14.60
2019-05-23T01:01:09.122Z,14.50
2019-05-23T01:03:41.227Z,14.50
2019-05-23T01:06:10.421Z,14.40
2019-05-23T01:08:40.337Z,14.40
2019-05-23T01:11:09.299Z,14.40
2019-05-23T01:13:39.842Z,14.30
2019-05-23T01:16:08.732Z,14.30
2019-05-23T01:18:39.203Z,14.30
2019-05-23T01:21:29.948Z,14.30
2019-05-23T01:24:05.142Z,14.30
2019-05-23T01:26:34.314Z,14.30
2019-05-23T01:29:06.143Z,14.30
2019-05-23T01:31:38.143Z,14.30
2019-05-23T01:34:09.180Z,14.30
2019-05-23T01:36:38.100Z,14.20
2019-05-23T01:39:09.985Z,14.20
2019-05-23T01:41:39.538Z,14.20
2019-05-23T01:44:10.296Z,14.20
2019-05-23T01:46:39.890Z,14.10
2019-05-23T01:49:09.040Z,14.10
2019-05-23T01:51:38.175Z,14.00
2019-05-23T01:54:07.514Z,14.00
2019-05-23T01:56:37.314Z,13.90
2019-05-23T01:59:06.207Z,13.90
2019-05-23T02:01:35.409Z,13.90
2019-05-23T02:04:04.332Z,13.90
2019-05-23T02:06:33.331Z,13.80
2019-05-23T02:09:02.844Z,13.80
2019-05-23T02:11:31.749Z,13.80
2019-05-23T02:14:00.840Z,13.80
2019-05-23T02:16:31.702Z,13.80
2019-05-23T02:19:00.670Z,13.70
2019-05-23T02:21:30.981Z,13.70
2019-05-23T02:24:00.457Z,13.70
2019-05-23T02:26:31.030Z,13.70
2019-05-23T02:29:00.686Z,13.70
2019-05-23T02:31:29.907Z,13.60
2019-05-23T02:34:05.185Z,13.50
2019-05-23T02:36:34.550Z,13.50
2019-05-23T02:39:34.951Z,13.60
2019-05-23T02:42:19.962Z,13.60
2019-05-23T02:44:50.496Z,13.60
2019-05-23T02:47:29.526Z,13.50
2019-05-23T02:50:00.006Z,13.50
2019-05-23T02:52:38.916Z,13.50
2019-05-23T02:55:12.910Z,13.50
2019-05-23T02:57:42.970Z,13.40
2019-05-23T03:00:54.103Z,13.40
2019-05-23T03:03:24.373Z,13.40
2019-05-23T03:05:55.341Z,13.30
2019-05-23T03:08:26.983Z,13.30
2019-05-23T03:11:04.056Z,13.30
2019-05-23T03:13:35.709Z,13.20
2019-05-23T03:16:05.828Z,13.20
2019-05-23T03:18:40.010Z,13.20
2019-05-23T03:21:08.961Z,13.10
2019-05-23T03:23:38.554Z,13.10
2019-05-23T03:26:56.980Z,13.10
2019-05-23T03:29:23.570Z,13.00
2019-05-23T03:31:59.124Z,13.00
2019-05-23T03:34:31.640Z,12.90
2019-05-23T03:37:00.877Z,12.90
2019-05-23T03:39:43.517Z,12.90
2019-05-23T03:42:12.655Z,12.80
2019-05-23T03:44:43.341Z,12.80
2019-05-23T03:47:16.436Z,12.80
2019-05-23T03:49:45.432Z,12.80
2019-05-23T03:52:16.365Z,12.80
2019-05-23T03:54:49.047Z,12.80
2019-05-23T03:57:19.367Z,12.80
2019-05-23T03:59:50.449Z,12.80
2019-05-23T04:02:32.621Z,12.80
2019-05-23T04:05:02.654Z,12.80
2019-05-23T04:07:32.531Z,12.80
2019-05-23T04:10:01.668Z,12.80
2019-05-23T04:12:31.428Z,12.80
2019-05-23T04:15:00.719Z,12.80
2019-05-23T04:17:29.902Z,12.80
2019-05-23T04:19:59.451Z,12.80
2019-05-23T04:22:29.318Z,12.80
2019-05-23T04:25:01.869Z,12.80
2019-05-23T04:27:29.555Z,12.80
2019-05-23T04:29:58.578Z,12.80
2019-05-23T04:32:27.357Z,12.90
2019-05-23T04:34:56.221Z,12.90
2019-05-23T04:37:25.142Z,12.90
2019-05-23T04:39:54.173Z,12.90
2019-05-23T04:42:27.392Z,12.90
2019-05-23T04:44:56.122Z,13.00
2019-05-23T04:47:25.910Z,13.00
2019-05-23T04:49:54.738Z,13.00
2019-05-23T04:52:34.180Z,13.10
2019-05-23T04:55:03.494Z,13.10
2019-05-23T04:57:32.448Z,13.20
2019-05-23T05:00:01.671Z,13.20
2019-05-23T05:02:30.628Z,13.20
2019-05-23T05:04:59.563Z,13.30
2019-05-23T05:07:28.481Z,13.30
2019-05-23T05:09:57.496Z,13.40
2019-05-23T05:12:26.363Z,13.50
2019-05-23T05:14:55.365Z,13.50
2019-05-23T05:17:24.586Z,13.60
2019-05-23T05:19:53.388Z,13.70
2019-05-23T05:22:22.907Z,13.80
2019-05-23T05:24:51.760Z,13.90
2019-05-23T05:27:21.624Z,14.00
2019-05-23T05:29:50.506Z,14.10
2019-05-23T05:32:20.511Z,14.10
2019-05-23T05:34:49.522Z,14.30
2019-05-23T05:37:18.393Z,14.40
2019-05-23T05:39:48.035Z,14.50
2019-05-23T05:42:17.082Z,14.60
2019-05-23T05:44:46.348Z,14.70
2019-05-23T05:47:15.838Z,14.80
2019-05-23T05:49:44.595Z,14.90
2019-05-23T05:52:13.576Z,15.00
2019-05-23T05:54:42.681Z,15.20
2019-05-23T05:57:11.761Z,15.30
2019-05-23T05:59:40.919Z,15.40
2019-05-23T06:02:12.580Z,15.50
2019-05-23T06:04:41.411Z,15.70
2019-05-23T06:07:36.697Z,15.80
2019-05-23T06:10:11.129Z,15.90
2019-05-23T06:12:40.428Z,16.10
2019-05-23T06:15:10.560Z,16.20
2019-05-23T06:17:39.697Z,16.30
2019-05-23T06:20:12.645Z,16.40
2019-05-23T06:22:41.978Z,16.50
2019-05-23T06:25:12.924Z,16.70
2019-05-23T06:27:42.364Z,16.80
2019-05-23T06:30:13.583Z,16.90
2019-05-23T06:32:42.548Z,17.00
2019-05-23T06:35:13.126Z,17.10
2019-05-23T06:37:42.582Z,17.20
2019-05-23T06:40:33.903Z,17.30
2019-05-23T06:43:02.959Z,17.40
2019-05-23T06:45:32.147Z,16.00
2019-05-23T06:48:01.532Z,17.70
2019-05-23T06:50:30.915Z,17.80
2019-05-23T06:52:59.710Z,17.90
2019-05-23T06:55:28.671Z,17.90
2019-05-23T06:57:57.707Z,18.00
2019-05-23T07:00:28.150Z,18.10
2019-05-23T07:02:59.876Z,18.20
2019-05-23T07:05:32.905Z,18.30
2019-05-23T07:08:02.388Z,18.40
2019-05-23T07:10:31.280Z,18.60
2019-05-23T07:13:00.269Z,18.60
2019-05-23T07:15:29.799Z,18.70
2019-05-23T07:18:00.654Z,18.90
2019-05-23T07:20:29.619Z,18.90
2019-05-23T07:22:58.862Z,19.00
2019-05-23T07:25:28.335Z,19.10
2019-05-23T07:27:57.160Z,19.20
2019-05-23T07:30:27.048Z,19.40
2019-05-23T07:32:56.987Z,19.50
2019-05-23T07:35:26.570Z,19.60
2019-05-23T07:37:55.505Z,19.70
2019-05-23T07:40:26.191Z,19.80
2019-05-23T07:42:55.931Z,19.90
2019-05-23T07:45:30.252Z,20.00
2019-05-23T07:47:59.362Z,20.10
2019-05-23T07:50:28.294Z,20.20
2019-05-23T07:52:58.913Z,20.20
2019-05-23T07:55:37.160Z,20.30
2019-05-23T07:58:06.403Z,20.40
2019-05-23T08:00:38.332Z,20.50
2019-05-23T08:03:09.493Z,20.60
2019-05-23T08:05:38.690Z,20.70
2019-05-23T08:08:07.771Z,20.80
2019-05-23T08:10:36.758Z,20.80
2019-05-23T08:13:05.594Z,20.90
2019-05-23T08:15:35.961Z,21.00
2019-05-23T08:18:05.755Z,21.20
2019-05-23T08:20:34.909Z,21.30
2019-05-23T08:23:03.672Z,21.40
2019-05-23T08:25:32.756Z,21.50
2019-05-23T08:28:01.904Z,21.60
2019-05-23T08:30:32.279Z,21.60
2019-05-23T08:33:01.166Z,21.80
2019-05-23T08:35:30.489Z,21.90
2019-05-23T08:38:00.263Z,21.90
2019-05-23T08:40:30.718Z,22.00
2019-05-23T08:42:59.776Z,22.20
2019-05-23T08:45:29.129Z,22.20
2019-05-23T08:47:58.365Z,22.40
2019-05-23T08:50:27.257Z,22.50
2019-05-23T08:52:56.462Z,22.50
2019-05-23T08:55:26.431Z,22.60
2019-05-23T08:57:55.345Z,22.70
2019-05-23T09:00:26.903Z,22.80
2019-05-23T09:02:58.752Z,22.90
2019-05-23T09:05:30.377Z,23.00
2019-05-23T09:07:59.974Z,23.10
2019-05-23T09:10:29.629Z,23.20
2019-05-23T09:12:58.758Z,23.30
2019-05-23T09:15:27.767Z,23.30
2019-05-23T09:17:56.855Z,23.40
2019-05-23T09:20:26.068Z,23.50
2019-05-23T09:22:54.957Z,23.50
2019-05-23T09:25:23.707Z,23.50
2019-05-23T09:27:53.325Z,23.60
2019-05-23T09:30:23.820Z,23.70
2019-05-23T09:32:53.272Z,23.80
2019-05-23T09:35:22.641Z,23.90
2019-05-23T09:37:51.721Z,23.90
2019-05-23T09:40:21.141Z,24.00
2019-05-23T09:42:50.116Z,24.10
2019-05-23T09:45:19.429Z,24.30
2019-05-23T09:47:50.925Z,24.30
2019-05-23T09:50:20.808Z,24.40
2019-05-23T09:52:49.648Z,24.50
2019-05-23T09:55:18.751Z,24.50
2019-05-23T09:57:47.682Z,24.60
2019-05-23T10:00:20.063Z,24.70
2019-05-23T10:02:48.897Z,24.70
2019-05-23T10:05:17.782Z,24.80
2019-05-23T10:07:46.629Z,24.90
2019-05-23T10:10:17.674Z,24.90
2019-05-23T10:12:46.603Z,24.90
2019-05-23T10:15:42.434Z,25.00
2019-05-23T10:18:14.960Z,24.90
2019-05-23T10:20:45.147Z,25.00
2019-05-23T10:23:14.118Z,25.00
2019-05-23T10:25:43.042Z,25.00
2019-05-23T10:28:11.902Z,25.10
2019-05-23T10:30:40.953Z,25.10
2019-05-23T10:33:12.757Z,25.20
2019-05-23T10:35:58.552Z,25.20
2019-05-23T10:38:11.583Z,25.30
2019-05-23T10:40:40.536Z,25.30
2019-05-23T10:43:10.305Z,25.30
2019-05-23T10:45:39.203Z,25.40
2019-05-23T10:48:10.593Z,25.50
2019-05-23T10:50:58.595Z,25.60
2019-05-23T10:53:27.473Z,25.70
2019-05-23T10:55:56.270Z,25.80
2019-05-23T10:58:26.838Z,25.90
2019-05-23T11:00:56.734Z,25.90
2019-05-23T11:03:26.728Z,26.00
2019-05-23T11:05:55.590Z,26.00
2019-05-23T11:08:28.881Z,26.00
2019-05-23T11:10:56.216Z,26.00
2019-05-23T11:13:25.118Z,26.00
2019-05-23T11:15:53.971Z,26.10
2019-05-23T11:18:23.159Z,26.10
2019-05-23T11:20:52.094Z,26.10
2019-05-23T11:23:25.681Z,26.20
2019-05-23T11:25:54.597Z,26.20
2019-05-23T11:28:23.854Z,26.30
2019-05-23T11:30:55.157Z,26.20
2019-05-23T11:33:25.152Z,26.20
2019-05-23T11:35:53.980Z,26.30
2019-05-23T11:38:23.368Z,26.40
2019-05-23T11:40:52.256Z,26.40
2019-05-23T11:43:21.104Z,26.50
2019-05-23T11:46:09.152Z,26.60
2019-05-23T11:48:38.622Z,26.60
2019-05-23T11:51:07.433Z,26.70
2019-05-23T11:53:36.225Z,26.70
2019-05-23T11:56:05.105Z,26.70
2019-05-23T11:58:34.199Z,26.80
2019-05-23T12:01:21.305Z,26.90
2019-05-23T12:03:54.963Z,26.90
2019-05-23T12:06:26.566Z,27.00
2019-05-23T12:08:55.669Z,27.00
2019-05-23T12:11:24.607Z,27.00
2019-05-23T12:13:53.438Z,27.00
2019-05-23T12:16:23.477Z,26.90
2019-05-23T12:18:52.366Z,26.90
2019-05-23T12:21:21.162Z,26.90
2019-05-23T12:23:50.018Z,27.00
2019-05-23T12:26:18.940Z,27.00
2019-05-23T12:28:47.778Z,27.00
2019-05-23T12:31:17.938Z,27.00
2019-05-23T12:33:46.785Z,26.90
2019-05-23T12:36:16.241Z,27.00
2019-05-23T12:38:45.077Z,27.00
2019-05-23T12:41:14.402Z,27.00
2019-05-23T12:43:43.326Z,27.10
2019-05-23T12:46:12.343Z,27.10
2019-05-23T12:49:03.472Z,27.20
2019-05-23T12:51:34.962Z,27.20
2019-05-23T12:54:04.006Z,27.10
2019-05-23T12:56:33.920Z,27.10
2019-05-23T12:59:05.674Z,27.10
2019-05-23T13:01:36.560Z,27.20
2019-05-23T13:04:09.964Z,27.20
2019-05-23T13:06:36.525Z,27.20
2019-05-23T13:09:08.653Z,27.20
2019-05-23T13:11:37.943Z,27.20
2019-05-23T13:14:07.626Z,27.20
2019-05-23T13:16:36.482Z,27.20
2019-05-23T13:19:05.427Z,27.30
2019-05-23T13:21:34.339Z,27.40
2019-05-23T13:24:03.245Z,27.40
2019-05-23T13:26:32.022Z,27.40
2019-05-23T13:29:00.869Z,27.40
2019-05-23T13:31:29.996Z,27.50
2019-05-23T13:33:58.821Z,27.50
2019-05-23T13:36:27.730Z,27.60
2019-05-23T13:38:56.655Z,27.60
2019-05-23T13:41:25.396Z,27.70
2019-05-23T13:43:54.316Z,27.70
2019-05-23T13:46:23.268Z,27.80
2019-05-23T13:48:52.138Z,27.90
2019-05-23T13:51:20.943Z,28.00
2019-05-23T13:53:49.856Z,28.10
2019-05-23T13:56:19.144Z,28.10
2019-05-23T13:58:48.208Z,28.20
2019-05-23T14:01:18.199Z,28.20
2019-05-23T14:03:47.060Z,28.20
2019-05-23T14:06:15.900Z,28.20
2019-05-23T14:08:44.770Z,28.10
2019-05-23T14:11:13.906Z,28.10
2019-05-23T14:13:43.139Z,28.00
2019-05-23T14:16:12.174Z,28.00
2019-05-23T14:18:41.286Z,28.10
2019-05-23T14:21:10.390Z,28.20
2019-05-23T14:23:39.291Z,28.20
2019-05-23T14:26:09.107Z,28.30
2019-05-23T14:28:38.191Z,28.50
2019-05-23T14:31:14.711Z,28.70
2019-05-23T14:33:59.335Z,28.80
2019-05-23T14:36:37.832Z,29.00
2019-05-23T14:39:09.989Z,29.20
2019-05-23T14:41:45.859Z,29.30
2019-05-23T14:44:15.233Z,29.50
2019-05-23T14:46:55.270Z,29.60
2019-05-23T14:49:30.089Z,29.80
2019-05-23T14:52:17.782Z,29.90
2019-05-23T14:54:49.564Z,30.00
2019-05-23T14:57:18.633Z,30.10
2019-05-23T14:59:47.444Z,30.20
2019-05-23T15:02:19.326Z,30.40
2019-05-23T15:04:48.231Z,30.50
2019-05-23T15:07:17.142Z,30.70
2019-05-23T15:09:47.692Z,30.90
2019-05-23T15:12:19.442Z,31.00
2019-05-23T15:14:48.441Z,31.20
2019-05-23T15:17:19.729Z,31.30
2019-05-23T15:19:48.665Z,31.50
2019-05-23T15:22:17.484Z,31.70
2019-05-23T15:24:46.327Z,31.80
2019-05-23T15:27:15.637Z,32.00
2019-05-23T15:29:44.505Z,32.10
2019-05-23T15:32:13.356Z,32.20
2019-05-23T15:34:42.345Z,32.40
2019-05-23T15:37:11.567Z,32.40
2019-05-23T15:39:40.483Z,32.50
2019-05-23T15:42:09.659Z,32.60
2019-05-23T15:44:38.476Z,32.60
2019-05-23T15:47:07.375Z,32.70
2019-05-23T15:49:37.902Z,32.80
2019-05-23T15:52:16.994Z,32.90
2019-05-23T15:54:50.893Z,33.10
2019-05-23T15:57:23.498Z,33.20
2019-05-23T15:59:59.787Z,33.40
2019-05-23T16:02:33.207Z,33.50
2019-05-23T16:05:04.151Z,33.70
2019-05-23T16:07:33.186Z,34.00
2019-05-23T16:10:03.410Z,34.20
2019-05-23T16:12:33.111Z,34.30
2019-05-23T16:15:01.987Z,34.50
2019-05-23T16:17:30.893Z,34.70
2019-05-23T16:19:59.642Z,34.70
2019-05-23T16:22:28.810Z,34.80
2019-05-23T16:24:57.638Z,34.70
2019-05-23T16:27:26.597Z,34.70
2019-05-23T16:29:55.442Z,34.60
2019-05-23T16:32:24.476Z,34.60
2019-05-23T16:34:53.252Z,34.50
2019-05-23T16:37:22.114Z,34.60
2019-05-23T16:39:50.911Z,34.60
2019-05-23T16:42:20.039Z,34.70
2019-05-23T16:44:48.906Z,34.70
2019-05-23T16:47:17.801Z,34.50
2019-05-23T16:49:46.947Z,34.50
2019-05-23T16:52:16.202Z,34.60
2019-05-23T16:54:47.113Z,34.60
2019-05-23T16:57:31.507Z,34.50
2019-05-23T17:00:11.079Z,34.30
2019-05-23T17:02:53.564Z,33.90
2019-05-23T17:05:40.602Z,33.50
2019-05-23T17:08:20.921Z,33.10
2019-05-23T17:10:55.071Z,32.70
2019-05-23T17:13:29.249Z,32.20
2019-05-23T17:16:07.088Z,31.80
2019-05-23T17:18:50.447Z,31.40
2019-05-23T17:21:31.640Z,31.00
2019-05-23T17:24:19.699Z,30.60
2019-05-23T17:26:53.906Z,30.30
2019-05-23T17:29:39.959Z,30.00
2019-05-23T17:32:10.768Z,29.70
2019-05-23T17:34:39.647Z,29.50
2019-05-23T17:37:10.372Z,29.20
2019-05-23T17:39:39.966Z,29.00
2019-05-23T17:42:08.795Z,28.90
2019-05-23T17:44:37.664Z,28.70
2019-05-23T17:47:06.762Z,28.60
2019-05-23T17:49:35.905Z,28.40
2019-05-23T17:52:05.093Z,28.30
2019-05-23T17:54:33.951Z,28.20
2019-05-23T17:57:02.794Z,28.00
2019-05-23T17:59:31.753Z,27.80
2019-05-23T18:02:01.561Z,27.70
2019-05-23T18:04:30.360Z,27.40
2019-05-23T18:06:59.637Z,27.30
2019-05-23T18:09:30.060Z,27.30
2019-05-23T18:11:59.835Z,27.40
2019-05-23T18:14:29.232Z,27.40
2019-05-23T18:16:58.115Z,27.40
2019-05-23T18:19:27.141Z,27.40
2019-05-23T18:21:56.155Z,27.40
2019-05-23T18:24:25.633Z,27.30
2019-05-23T18:26:54.516Z,27.30
2019-05-23T18:29:23.656Z,27.30
2019-05-23T18:31:53.278Z,27.20
2019-05-23T18:34:23.781Z,27.20
2019-05-23T18:36:52.850Z,27.20
2019-05-23T18:39:22.947Z,27.10
2019-05-23T18:41:52.403Z,27.00
2019-05-23T18:44:21.934Z,27.00
2019-05-23T18:46:52.791Z,27.00
2019-05-23T18:49:22.358Z,27.00
2019-05-23T18:51:51.141Z,27.00
2019-05-23T18:54:20.197Z,27.00
2019-05-23T18:56:49.515Z,27.00
2019-05-23T18:59:19.418Z,27.00
2019-05-23T19:01:48.370Z,26.90
2019-05-23T19:04:17.194Z,26.90
2019-05-23T19:06:46.881Z,26.90
2019-05-23T19:09:19.440Z,26.80
2019-05-23T19:11:48.338Z,26.80
2019-05-23T19:14:17.729Z,26.70
2019-05-23T19:16:47.246Z,26.70
2019-05-23T19:19:16.098Z,26.70
2019-05-23T19:21:45.279Z,26.70
2019-05-23T19:24:14.624Z,26.60
2019-05-23T19:26:43.701Z,26.60
2019-05-23T19:29:12.709Z,26.50
2019-05-23T19:31:41.655Z,26.50
2019-05-23T19:34:12.638Z,26.40
2019-05-23T19:36:41.412Z,26.30
2019-05-23T19:39:13.737Z,26.30
2019-05-23T19:41:42.603Z,26.20
2019-05-23T19:44:11.711Z,26.20
2019-05-23T19:46:40.904Z,26.10
2019-05-23T19:49:10.765Z,26.00
2019-05-23T19:51:39.917Z,25.90
2019-05-23T19:54:09.122Z,25.60
2019-05-23T19:56:38.603Z,25.60
2019-05-23T19:59:07.525Z,25.60
2019-05-23T20:01:52.311Z,25.50
2019-05-23T20:04:26.187Z,25.40
2019-05-23T20:06:52.632Z,25.30
2019-05-23T20:09:23.041Z,25.20
2019-05-23T20:11:54.809Z,25.10
2019-05-23T20:14:22.971Z,24.90
2019-05-23T20:16:52.259Z,24.80
2019-05-23T20:19:21.167Z,24.60
2019-05-23T20:21:50.046Z,24.50
2019-05-23T20:24:19.005Z,24.40
2019-05-23T20:26:47.884Z,24.30
2019-05-23T20:29:16.733Z,24.20
2019-05-23T20:31:48.611Z,24.10
2019-05-23T20:34:17.536Z,23.90
2019-05-23T20:36:46.329Z,23.80
2019-05-23T20:39:15.421Z,23.80
2019-05-23T20:41:44.312Z,23.70
2019-05-23T20:44:13.128Z,23.70
2019-05-23T20:46:42.329Z,23.70
2019-05-23T20:49:11.139Z,23.60
2019-05-23T20:51:40.692Z,23.60
2019-05-23T20:54:09.557Z,23.50
2019-05-23T20:56:38.435Z,23.40
2019-05-23T20:59:08.273Z,23.40
2019-05-23T21:01:40.458Z,23.30
2019-05-23T21:04:09.279Z,23.20
2019-05-23T21:06:38.150Z,23.20
2019-05-23T21:09:08.499Z,23.10
2019-05-23T21:11:37.446Z,23.00
2019-05-23T21:14:06.268Z,22.90
2019-05-23T21:16:35.002Z,22.80
2019-05-23T21:19:03.977Z,22.80
2019-05-23T21:21:32.812Z,22.70
2019-05-23T21:24:01.591Z,22.60
2019-05-23T21:26:30.545Z,22.50
2019-05-23T21:28:59.453Z,22.40
2019-05-23T21:31:28.354Z,22.30
2019-05-23T21:33:57.201Z,22.20
2019-05-23T21:36:26.111Z,22.10
2019-05-23T21:38:55.056Z,22.00
2019-05-23T21:41:23.825Z,21.90
2019-05-23T21:43:54.626Z,21.90
2019-05-23T21:46:23.521Z,21.80
2019-05-23T21:48:52.375Z,21.70
2019-05-23T21:51:21.208Z,21.70
2019-05-23T21:53:49.963Z,21.60
2019-05-23T21:56:18.775Z,21.60
2019-05-23T21:58:47.611Z,21.50
2019-05-23T22:01:41.808Z,21.40
2019-05-23T22:04:17.694Z,21.40
2019-05-23T22:07:03.202Z,21.30
2019-05-23T22:09:32.029Z,21.20
2019-05-23T22:12:01.621Z,21.20
2019-05-23T22:14:30.462Z,21.10
2019-05-23T22:16:59.574Z,21.00
2019-05-23T22:19:28.902Z,21.00
2019-05-23T22:21:58.004Z,21.00
2019-05-23T22:24:26.989Z,20.90
2019-05-23T22:26:55.813Z,20.80
2019-05-23T22:29:24.679Z,20.80
2019-05-23T22:31:56.387Z,20.70
2019-05-23T22:34:42.112Z,20.60
2019-05-23T22:37:21.888Z,20.60
2019-05-23T22:39:50.711Z,20.50
2019-05-23T22:42:21.045Z,20.40
2019-05-23T22:44:50.150Z,20.40
2019-05-23T22:47:18.977Z,20.30
2019-05-23T22:49:47.844Z,20.20
2019-05-23T22:52:16.775Z,20.20
2019-05-23T22:54:45.635Z,20.10
2019-05-23T22:57:16.192Z,20.10
2019-05-23T22:59:45.181Z,20.00
2019-05-23T23:02:15.860Z,19.90
2019-05-23T23:04:44.683Z,19.90
2019-05-23T23:07:13.533Z,19.80
2019-05-23T23:09:42.337Z,19.80
2019-05-23T23:12:11.266Z,19.70
2019-05-23T23:14:40.106Z,19.70
2019-05-23T23:17:08.948Z,19.60
2019-05-23T23:19:37.725Z,19.60
2019-05-23T23:22:07.969Z,19.50
2019-05-23T23:24:36.744Z,19.50
2019-05-23T23:27:05.599Z,19.40
2019-05-23T23:29:34.489Z,19.40
2019-05-23T23:32:04.073Z,19.40
2019-05-23T23:34:33.304Z,19.40
2019-05-23T23:37:02.055Z,19.30
2019-05-23T23:39:30.897Z,19.30
2019-05-23T23:41:59.704Z,19.20
2019-05-23T23:44:33.682Z,19.20
2019-05-23T23:47:22.269Z,19.20
2019-05-23T23:50:09.297Z,19.10
2019-05-23T23:52:56.125Z,19.10
2019-05-23T23:55:42.757Z,19.10
2019-05-23T23:58:10.849Z,19.00
